sensor_id;sensor_type;location;lat;lon;timestamp;P1;durP1;ratioP1;P2;durP2;ratioP2
16878;SDS011;8556;52.218;9.884;2023-06-14T00:01:58;5.80;;;4.40;;
16878;SDS011;8556;52.218;9.884;2023-06-14T00:04:24;7.03;;;4.90;;
16878;SDS011;8556;52.218;9.884;2023-06-14T00:06:51;6.97;;;4.17;;
16878;SDS011;8556;52.218;9.884;2023-06-14T00:09:18;5.83;;;4.47;;
16878;SDS011;8556;52.218;9.884;2023-06-14T00:11:45;5.30;;;4.03;;
16878;SDS011;8556;52.218;9.884;2023-06-14T00:14:13;8.03;;;4.47;;
16878;SDS011;8556;52.218;9.884;2023-06-14T00:16:40;6.33;;;4.00;;
16878;SDS011;8556;52.218;9.884;2023-06-14T00:19:07;6.13;;;4.20;;
16878;SDS011;8556;52.218;9.884;2023-06-14T00:21:35;5.80;;;4.20;;
16878;SDS011;8556;52.218;9.884;2023-06-14T00:24:03;6.80;;;4.27;;
16878;SDS011;8556;52.218;9.884;2023-06-14T00:26:30;8.03;;;4.20;;
16878;SDS011;8556;52.218;9.884;2023-06-14T00:28:57;4.77;;;3.80;;
16878;SDS011;8556;52.218;9.884;2023-06-14T00:31:25;6.97;;;3.90;;
16878;SDS011;8556;52.218;9.884;2023-06-14T00:33:52;4.97;;;4.33;;
16878;SDS011;8556;52.218;9.884;2023-06-14T00:36:19;8.90;;;4.37;;
16878;SDS011;8556;52.218;9.884;2023-06-14T00:38:45;4.63;;;3.87;;
16878;SDS011;8556;52.218;9.884;2023-06-14T00:41:12;6.43;;;4.17;;
16878;SDS011;8556;52.218;9.884;2023-06-14T00:43:39;5.67;;;4.47;;
16878;SDS011;8556;52.218;9.884;2023-06-14T00:46:06;6.23;;;4.00;;
16878;SDS011;8556;52.218;9.884;2023-06-14T00:48:34;5.80;;;4.17;;
16878;SDS011;8556;52.218;9.884;2023-06-14T00:51:02;5.50;;;4.13;;
16878;SDS011;8556;52.218;9.884;2023-06-14T00:53:29;5.67;;;3.90;;
16878;SDS011;8556;52.218;9.884;2023-06-14T00:55:58;4.57;;;3.87;;
16878;SDS011;8556;52.218;9.884;2023-06-14T00:58:26;6.93;;;3.87;;
16878;SDS011;8556;52.218;9.884;2023-06-14T01:00:53;5.60;;;4.40;;
16878;SDS011;8556;52.218;9.884;2023-06-14T01:03:21;5.87;;;4.23;;
16878;SDS011;8556;52.218;9.884;2023-06-14T01:05:50;5.30;;;3.93;;
16878;SDS011;8556;52.218;9.884;2023-06-14T01:08:22;7.30;;;4.17;;
16878;SDS011;8556;52.218;9.884;2023-06-14T01:11:00;7.87;;;4.30;;
16878;SDS011;8556;52.218;9.884;2023-06-14T01:13:32;5.90;;;4.30;;
16878;SDS011;8556;52.218;9.884;2023-06-14T01:16:00;5.93;;;4.47;;
16878;SDS011;8556;52.218;9.884;2023-06-14T01:18:28;6.60;;;4.13;;
16878;SDS011;8556;52.218;9.884;2023-06-14T01:20:56;6.50;;;4.13;;
16878;SDS011;8556;52.218;9.884;2023-06-14T01:23:24;5.77;;;4.30;;
16878;SDS011;8556;52.218;9.884;2023-06-14T01:25:58;6.10;;;3.93;;
16878;SDS011;8556;52.218;9.884;2023-06-14T01:28:27;4.90;;;3.97;;
16878;SDS011;8556;52.218;9.884;2023-06-14T01:30:57;7.20;;;4.03;;
16878;SDS011;8556;52.218;9.884;2023-06-14T01:33:29;5.30;;;4.53;;
16878;SDS011;8556;52.218;9.884;2023-06-14T01:35:58;7.90;;;4.40;;
16878;SDS011;8556;52.218;9.884;2023-06-14T01:38:28;5.97;;;4.53;;
16878;SDS011;8556;52.218;9.884;2023-06-14T01:40:56;5.83;;;4.50;;
16878;SDS011;8556;52.218;9.884;2023-06-14T01:43:25;5.53;;;4.17;;
16878;SDS011;8556;52.218;9.884;2023-06-14T01:45:53;7.57;;;4.70;;
16878;SDS011;8556;52.218;9.884;2023-06-14T01:48:22;7.00;;;4.60;;
16878;SDS011;8556;52.218;9.884;2023-06-14T01:50:49;6.87;;;4.27;;
16878;SDS011;8556;52.218;9.884;2023-06-14T01:53:16;8.37;;;4.70;;
16878;SDS011;8556;52.218;9.884;2023-06-14T01:55:44;5.30;;;4.50;;
16878;SDS011;8556;52.218;9.884;2023-06-14T01:58:13;5.80;;;4.80;;
16878;SDS011;8556;52.218;9.884;2023-06-14T02:00:41;5.40;;;4.43;;
16878;SDS011;8556;52.218;9.884;2023-06-14T02:03:10;5.40;;;4.10;;
16878;SDS011;8556;52.218;9.884;2023-06-14T02:05:38;6.00;;;4.70;;
16878;SDS011;8556;52.218;9.884;2023-06-14T02:08:05;7.63;;;4.40;;
16878;SDS011;8556;52.218;9.884;2023-06-14T02:10:32;6.30;;;4.70;;
16878;SDS011;8556;52.218;9.884;2023-06-14T02:13:00;5.93;;;4.73;;
16878;SDS011;8556;52.218;9.884;2023-06-14T02:15:27;6.50;;;4.97;;
16878;SDS011;8556;52.218;9.884;2023-06-14T02:17:58;7.60;;;4.70;;
16878;SDS011;8556;52.218;9.884;2023-06-14T02:20:26;5.00;;;4.40;;
16878;SDS011;8556;52.218;9.884;2023-06-14T02:22:53;6.63;;;4.53;;
16878;SDS011;8556;52.218;9.884;2023-06-14T02:25:20;6.07;;;4.00;;
16878;SDS011;8556;52.218;9.884;2023-06-14T02:27:47;8.67;;;4.73;;
16878;SDS011;8556;52.218;9.884;2023-06-14T02:30:15;6.70;;;4.70;;
16878;SDS011;8556;52.218;9.884;2023-06-14T02:32:42;8.50;;;4.63;;
16878;SDS011;8556;52.218;9.884;2023-06-14T02:35:09;5.27;;;4.30;;
16878;SDS011;8556;52.218;9.884;2023-06-14T02:37:36;8.50;;;5.67;;
16878;SDS011;8556;52.218;9.884;2023-06-14T02:40:03;6.30;;;5.03;;
16878;SDS011;8556;52.218;9.884;2023-06-14T02:42:31;6.43;;;4.33;;
16878;SDS011;8556;52.218;9.884;2023-06-14T02:44:58;7.70;;;4.70;;
16878;SDS011;8556;52.218;9.884;2023-06-14T02:47:26;6.43;;;4.30;;
16878;SDS011;8556;52.218;9.884;2023-06-14T02:49:53;6.23;;;4.13;;
16878;SDS011;8556;52.218;9.884;2023-06-14T02:52:20;6.13;;;4.60;;
16878;SDS011;8556;52.218;9.884;2023-06-14T02:54:47;6.33;;;4.53;;
16878;SDS011;8556;52.218;9.884;2023-06-14T02:57:14;7.10;;;4.40;;
16878;SDS011;8556;52.218;9.884;2023-06-14T02:59:41;7.63;;;4.40;;
16878;SDS011;8556;52.218;9.884;2023-06-14T03:02:08;6.50;;;4.53;;
16878;SDS011;8556;52.218;9.884;2023-06-14T03:04:36;7.37;;;4.07;;
16878;SDS011;8556;52.218;9.884;2023-06-14T03:07:03;6.47;;;4.63;;
16878;SDS011;8556;52.218;9.884;2023-06-14T03:09:34;7.93;;;4.70;;
16878;SDS011;8556;52.218;9.884;2023-06-14T03:12:02;4.87;;;4.03;;
16878;SDS011;8556;52.218;9.884;2023-06-14T03:14:29;5.50;;;4.40;;
16878;SDS011;8556;52.218;9.884;2023-06-14T03:16:57;5.60;;;3.77;;
16878;SDS011;8556;52.218;9.884;2023-06-14T03:19:24;5.20;;;3.80;;
16878;SDS011;8556;52.218;9.884;2023-06-14T03:21:52;3.97;;;3.67;;
16878;SDS011;8556;52.218;9.884;2023-06-14T03:24:22;5.07;;;3.60;;
16878;SDS011;8556;52.218;9.884;2023-06-14T03:26:49;4.33;;;3.47;;
16878;SDS011;8556;52.218;9.884;2023-06-14T03:29:15;7.07;;;3.80;;
16878;SDS011;8556;52.218;9.884;2023-06-14T03:31:56;4.30;;;3.90;;
16878;SDS011;8556;52.218;9.884;2023-06-14T03:34:24;7.10;;;4.87;;
16878;SDS011;8556;52.218;9.884;2023-06-14T03:36:50;5.27;;;4.20;;
16878;SDS011;8556;52.218;9.884;2023-06-14T03:39:19;5.03;;;4.30;;
16878;SDS011;8556;52.218;9.884;2023-06-14T03:41:46;6.37;;;4.23;;
16878;SDS011;8556;52.218;9.884;2023-06-14T03:44:14;5.93;;;4.10;;
16878;SDS011;8556;52.218;9.884;2023-06-14T03:46:42;6.57;;;4.27;;
16878;SDS011;8556;52.218;9.884;2023-06-14T03:49:10;6.87;;;4.57;;
16878;SDS011;8556;52.218;9.884;2023-06-14T03:51:37;6.13;;;4.00;;
16878;SDS011;8556;52.218;9.884;2023-06-14T03:54:06;7.10;;;4.23;;
16878;SDS011;8556;52.218;9.884;2023-06-14T03:56:33;6.07;;;4.07;;
16878;SDS011;8556;52.218;9.884;2023-06-14T03:59:00;5.73;;;4.27;;
16878;SDS011;8556;52.218;9.884;2023-06-14T04:01:27;6.90;;;4.67;;
16878;SDS011;8556;52.218;9.884;2023-06-14T04:03:55;6.13;;;4.00;;
16878;SDS011;8556;52.218;9.884;2023-06-14T04:06:22;7.37;;;4.07;;
16878;SDS011;8556;52.218;9.884;2023-06-14T04:08:56;5.60;;;4.03;;
16878;SDS011;8556;52.218;9.884;2023-06-14T04:11:30;6.87;;;4.13;;
16878;SDS011;8556;52.218;9.884;2023-06-14T04:13:57;7.23;;;3.70;;
16878;SDS011;8556;52.218;9.884;2023-06-14T04:16:24;4.33;;;3.60;;
16878;SDS011;8556;52.218;9.884;2023-06-14T04:18:51;5.67;;;3.80;;
16878;SDS011;8556;52.218;9.884;2023-06-14T04:21:19;6.00;;;3.70;;
16878;SDS011;8556;52.218;9.884;2023-06-14T04:23:51;4.82;;;3.25;;
16878;SDS011;8556;52.218;9.884;2023-06-14T04:26:20;5.80;;;3.70;;
16878;SDS011;8556;52.218;9.884;2023-06-14T04:28:50;5.07;;;3.78;;
16878;SDS011;8556;52.218;9.884;2023-06-14T04:31:17;9.57;;;3.97;;
16878;SDS011;8556;52.218;9.884;2023-06-14T04:33:44;7.37;;;4.20;;
16878;SDS011;8556;52.218;9.884;2023-06-14T04:36:11;7.47;;;3.67;;
16878;SDS011;8556;52.218;9.884;2023-06-14T04:38:39;5.47;;;3.90;;
16878;SDS011;8556;52.218;9.884;2023-06-14T04:41:06;4.70;;;3.60;;
16878;SDS011;8556;52.218;9.884;2023-06-14T04:43:36;5.83;;;4.00;;
16878;SDS011;8556;52.218;9.884;2023-06-14T04:46:05;7.17;;;4.20;;
16878;SDS011;8556;52.218;9.884;2023-06-14T04:48:35;5.23;;;3.47;;
16878;SDS011;8556;52.218;9.884;2023-06-14T04:51:05;4.00;;;3.60;;
16878;SDS011;8556;52.218;9.884;2023-06-14T04:53:32;6.47;;;3.73;;
16878;SDS011;8556;52.218;9.884;2023-06-14T04:55:59;5.70;;;3.70;;
16878;SDS011;8556;52.218;9.884;2023-06-14T04:58:28;8.57;;;3.70;;
16878;SDS011;8556;52.218;9.884;2023-06-14T05:00:55;4.03;;;3.40;;
16878;SDS011;8556;52.218;9.884;2023-06-14T05:03:25;7.40;;;3.57;;
16878;SDS011;8556;52.218;9.884;2023-06-14T05:05:52;4.33;;;3.60;;
16878;SDS011;8556;52.218;9.884;2023-06-14T05:08:20;5.10;;;3.50;;
16878;SDS011;8556;52.218;9.884;2023-06-14T05:10:48;8.90;;;3.70;;
16878;SDS011;8556;52.218;9.884;2023-06-14T05:13:15;4.17;;;3.50;;
16878;SDS011;8556;52.218;9.884;2023-06-14T05:15:42;4.47;;;3.30;;
16878;SDS011;8556;52.218;9.884;2023-06-14T05:18:09;5.47;;;3.53;;
16878;SDS011;8556;52.218;9.884;2023-06-14T05:20:37;6.53;;;3.73;;
16878;SDS011;8556;52.218;9.884;2023-06-14T05:23:05;5.40;;;3.40;;
16878;SDS011;8556;52.218;9.884;2023-06-14T05:25:31;3.72;;;3.30;;
16878;SDS011;8556;52.218;9.884;2023-06-14T05:27:58;6.03;;;3.22;;
16878;SDS011;8556;52.218;9.884;2023-06-14T05:30:25;4.07;;;3.03;;
16878;SDS011;8556;52.218;9.884;2023-06-14T05:32:54;6.50;;;3.60;;
16878;SDS011;8556;52.218;9.884;2023-06-14T05:35:21;2.83;;;2.63;;
16878;SDS011;8556;52.218;9.884;2023-06-14T05:37:49;5.70;;;3.22;;
16878;SDS011;8556;52.218;9.884;2023-06-14T05:40:16;3.30;;;2.85;;
16878;SDS011;8556;52.218;9.884;2023-06-14T05:42:43;3.17;;;2.65;;
16878;SDS011;8556;52.218;9.884;2023-06-14T05:45:10;5.85;;;4.22;;
16878;SDS011;8556;52.218;9.884;2023-06-14T05:47:36;4.68;;;2.65;;
16878;SDS011;8556;52.218;9.884;2023-06-14T05:50:04;5.05;;;3.33;;
16878;SDS011;8556;52.218;9.884;2023-06-14T05:52:31;6.03;;;3.10;;
16878;SDS011;8556;52.218;9.884;2023-06-14T05:54:59;4.47;;;2.70;;
16878;SDS011;8556;52.218;9.884;2023-06-14T05:57:27;5.57;;;3.30;;
16878;SDS011;8556;52.218;9.884;2023-06-14T05:59:54;2.92;;;2.70;;
16878;SDS011;8556;52.218;9.884;2023-06-14T06:02:20;5.22;;;3.28;;
16878;SDS011;8556;52.218;9.884;2023-06-14T06:04:47;3.95;;;3.00;;
16878;SDS011;8556;52.218;9.884;2023-06-14T06:07:14;4.07;;;2.90;;
16878;SDS011;8556;52.218;9.884;2023-06-14T06:09:41;6.15;;;3.50;;
16878;SDS011;8556;52.218;9.884;2023-06-14T06:12:09;4.80;;;3.13;;
16878;SDS011;8556;52.218;9.884;2023-06-14T06:14:36;10.70;;;3.20;;
16878;SDS011;8556;52.218;9.884;2023-06-14T06:17:03;3.88;;;3.00;;
16878;SDS011;8556;52.218;9.884;2023-06-14T06:19:31;5.32;;;3.10;;
16878;SDS011;8556;52.218;9.884;2023-06-14T06:21:58;5.97;;;3.55;;
16878;SDS011;8556;52.218;9.884;2023-06-14T06:24:25;3.53;;;3.15;;
16878;SDS011;8556;52.218;9.884;2023-06-14T06:26:51;3.95;;;3.45;;
16878;SDS011;8556;52.218;9.884;2023-06-14T06:29:20;6.72;;;3.55;;
16878;SDS011;8556;52.218;9.884;2023-06-14T06:31:47;3.88;;;2.80;;
16878;SDS011;8556;52.218;9.884;2023-06-14T06:34:14;6.03;;;3.92;;
16878;SDS011;8556;52.218;9.884;2023-06-14T06:36:41;3.67;;;3.33;;
16878;SDS011;8556;52.218;9.884;2023-06-14T06:39:08;43.92;;;5.88;;
16878;SDS011;8556;52.218;9.884;2023-06-14T06:41:35;4.57;;;3.30;;
16878;SDS011;8556;52.218;9.884;2023-06-14T06:44:04;4.22;;;3.38;;
16878;SDS011;8556;52.218;9.884;2023-06-14T06:46:33;3.50;;;3.20;;
16878;SDS011;8556;52.218;9.884;2023-06-14T06:49:00;4.90;;;3.05;;
16878;SDS011;8556;52.218;9.884;2023-06-14T06:51:26;3.67;;;3.15;;
16878;SDS011;8556;52.218;9.884;2023-06-14T06:53:53;3.55;;;3.25;;
16878;SDS011;8556;52.218;9.884;2023-06-14T06:56:20;4.90;;;3.55;;
16878;SDS011;8556;52.218;9.884;2023-06-14T06:58:48;4.68;;;2.70;;
16878;SDS011;8556;52.218;9.884;2023-06-14T07:01:15;4.07;;;3.20;;
16878;SDS011;8556;52.218;9.884;2023-06-14T07:03:43;7.28;;;3.10;;
16878;SDS011;8556;52.218;9.884;2023-06-14T07:06:10;5.82;;;3.10;;
16878;SDS011;8556;52.218;9.884;2023-06-14T07:08:37;3.50;;;2.88;;
16878;SDS011;8556;52.218;9.884;2023-06-14T07:11:04;3.33;;;2.88;;
16878;SDS011;8556;52.218;9.884;2023-06-14T07:13:31;4.50;;;2.97;;
16878;SDS011;8556;52.218;9.884;2023-06-14T07:15:59;3.58;;;2.60;;
16878;SDS011;8556;52.218;9.884;2023-06-14T07:18:26;5.28;;;2.78;;
16878;SDS011;8556;52.218;9.884;2023-06-14T07:20:54;4.50;;;2.90;;
16878;SDS011;8556;52.218;9.884;2023-06-14T07:23:21;4.95;;;2.85;;
16878;SDS011;8556;52.218;9.884;2023-06-14T07:25:48;3.65;;;2.70;;
16878;SDS011;8556;52.218;9.884;2023-06-14T07:28:15;3.45;;;2.90;;
16878;SDS011;8556;52.218;9.884;2023-06-14T07:30:43;5.40;;;3.10;;
16878;SDS011;8556;52.218;9.884;2023-06-14T07:33:09;4.25;;;2.95;;
16878;SDS011;8556;52.218;9.884;2023-06-14T07:35:37;3.45;;;2.95;;
16878;SDS011;8556;52.218;9.884;2023-06-14T07:38:05;3.08;;;2.70;;
16878;SDS011;8556;52.218;9.884;2023-06-14T07:40:32;5.45;;;2.97;;
16878;SDS011;8556;52.218;9.884;2023-06-14T07:42:59;2.95;;;2.58;;
16878;SDS011;8556;52.218;9.884;2023-06-14T07:45:26;3.22;;;2.92;;
16878;SDS011;8556;52.218;9.884;2023-06-14T07:47:53;3.30;;;2.60;;
16878;SDS011;8556;52.218;9.884;2023-06-14T07:50:20;3.25;;;2.95;;
16878;SDS011;8556;52.218;9.884;2023-06-14T07:52:47;2.97;;;2.67;;
16878;SDS011;8556;52.218;9.884;2023-06-14T07:55:15;2.78;;;2.55;;
16878;SDS011;8556;52.218;9.884;2023-06-14T07:57:42;3.72;;;2.53;;
16878;SDS011;8556;52.218;9.884;2023-06-14T08:00:10;3.13;;;2.60;;
16878;SDS011;8556;52.218;9.884;2023-06-14T08:02:40;3.67;;;2.72;;
16878;SDS011;8556;52.218;9.884;2023-06-14T08:05:08;2.80;;;2.60;;
16878;SDS011;8556;52.218;9.884;2023-06-14T08:07:36;2.63;;;2.17;;
16878;SDS011;8556;52.218;9.884;2023-06-14T08:10:03;4.38;;;2.28;;
16878;SDS011;8556;52.218;9.884;2023-06-14T08:12:32;3.83;;;2.63;;
16878;SDS011;8556;52.218;9.884;2023-06-14T08:14:59;3.67;;;2.58;;
16878;SDS011;8556;52.218;9.884;2023-06-14T08:17:26;3.38;;;2.28;;
16878;SDS011;8556;52.218;9.884;2023-06-14T08:19:53;3.28;;;2.72;;
16878;SDS011;8556;52.218;9.884;2023-06-14T08:22:22;4.10;;;2.75;;
16878;SDS011;8556;52.218;9.884;2023-06-14T08:24:49;3.20;;;2.47;;
16878;SDS011;8556;52.218;9.884;2023-06-14T08:27:16;3.60;;;2.90;;
16878;SDS011;8556;52.218;9.884;2023-06-14T08:29:44;2.70;;;2.50;;
16878;SDS011;8556;52.218;9.884;2023-06-14T08:32:11;2.42;;;2.22;;
16878;SDS011;8556;52.218;9.884;2023-06-14T08:34:38;2.92;;;2.60;;
16878;SDS011;8556;52.218;9.884;2023-06-14T08:37:05;2.95;;;2.50;;
16878;SDS011;8556;52.218;9.884;2023-06-14T08:39:32;3.65;;;2.47;;
16878;SDS011;8556;52.218;9.884;2023-06-14T08:41:59;3.03;;;2.53;;
16878;SDS011;8556;52.218;9.884;2023-06-14T08:44:27;2.97;;;2.72;;
16878;SDS011;8556;52.218;9.884;2023-06-14T08:46:55;3.38;;;2.60;;
16878;SDS011;8556;52.218;9.884;2023-06-14T08:49:23;2.60;;;2.40;;
16878;SDS011;8556;52.218;9.884;2023-06-14T08:51:53;3.33;;;3.03;;
16878;SDS011;8556;52.218;9.884;2023-06-14T08:54:23;4.43;;;2.40;;
16878;SDS011;8556;52.218;9.884;2023-06-14T08:56:52;3.67;;;2.55;;
16878;SDS011;8556;52.218;9.884;2023-06-14T08:59:22;2.63;;;2.42;;
16878;SDS011;8556;52.218;9.884;2023-06-14T09:01:50;4.25;;;2.40;;
16878;SDS011;8556;52.218;9.884;2023-06-14T09:04:20;3.38;;;3.05;;
16878;SDS011;8556;52.218;9.884;2023-06-14T09:06:47;2.55;;;2.35;;
16878;SDS011;8556;52.218;9.884;2023-06-14T09:09:17;6.00;;;2.60;;
16878;SDS011;8556;52.218;9.884;2023-06-14T09:11:45;4.57;;;2.60;;
16878;SDS011;8556;52.218;9.884;2023-06-14T09:14:12;3.90;;;2.35;;
16878;SDS011;8556;52.218;9.884;2023-06-14T09:16:39;2.78;;;2.58;;
16878;SDS011;8556;52.218;9.884;2023-06-14T09:19:06;5.13;;;2.45;;
16878;SDS011;8556;52.218;9.884;2023-06-14T09:21:35;3.15;;;2.35;;
16878;SDS011;8556;52.218;9.884;2023-06-14T09:24:02;2.38;;;1.90;;
16878;SDS011;8556;52.218;9.884;2023-06-14T09:26:30;3.42;;;2.17;;
16878;SDS011;8556;52.218;9.884;2023-06-14T09:28:57;3.05;;;2.53;;
16878;SDS011;8556;52.218;9.884;2023-06-14T09:31:25;2.30;;;2.10;;
16878;SDS011;8556;52.218;9.884;2023-06-14T09:33:56;2.72;;;2.25;;
16878;SDS011;8556;52.218;9.884;2023-06-14T09:36:24;2.50;;;2.30;;
16878;SDS011;8556;52.218;9.884;2023-06-14T09:38:53;3.20;;;2.60;;
16878;SDS011;8556;52.218;9.884;2023-06-14T09:41:21;3.22;;;2.28;;
16878;SDS011;8556;52.218;9.884;2023-06-14T09:43:58;2.63;;;2.42;;
16878;SDS011;8556;52.218;9.884;2023-06-14T09:46:27;5.03;;;2.47;;
16878;SDS011;8556;52.218;9.884;2023-06-14T09:48:54;2.50;;;2.30;;
16878;SDS011;8556;52.218;9.884;2023-06-14T09:51:21;2.83;;;2.35;;
16878;SDS011;8556;52.218;9.884;2023-06-14T09:53:49;2.40;;;2.20;;
16878;SDS011;8556;52.218;9.884;2023-06-14T09:56:19;2.38;;;2.17;;
16878;SDS011;8556;52.218;9.884;2023-06-14T09:58:50;2.75;;;2.53;;
16878;SDS011;8556;52.218;9.884;2023-06-14T10:01:21;3.72;;;2.30;;
16878;SDS011;8556;52.218;9.884;2023-06-14T10:03:50;2.42;;;2.22;;
16878;SDS011;8556;52.218;9.884;2023-06-14T10:06:21;2.75;;;2.50;;
16878;SDS011;8556;52.218;9.884;2023-06-14T10:08:50;3.08;;;2.13;;
16878;SDS011;8556;52.218;9.884;2023-06-14T10:11:23;3.20;;;2.58;;
16878;SDS011;8556;52.218;9.884;2023-06-14T10:13:52;2.83;;;2.35;;
16878;SDS011;8556;52.218;9.884;2023-06-14T10:16:22;2.67;;;2.35;;
16878;SDS011;8556;52.218;9.884;2023-06-14T10:18:55;2.75;;;2.55;;
16878;SDS011;8556;52.218;9.884;2023-06-14T10:21:41;2.60;;;2.40;;
16878;SDS011;8556;52.218;9.884;2023-06-14T10:24:24;3.13;;;2.70;;
16878;SDS011;8556;52.218;9.884;2023-06-14T10:27:00;3.92;;;2.45;;
16878;SDS011;8556;52.218;9.884;2023-06-14T10:29:27;3.35;;;2.63;;
16878;SDS011;8556;52.218;9.884;2023-06-14T10:31:57;3.33;;;2.25;;
16878;SDS011;8556;52.218;9.884;2023-06-14T10:34:24;2.92;;;2.40;;
16878;SDS011;8556;52.218;9.884;2023-06-14T10:37:01;2.70;;;2.50;;
16878;SDS011;8556;52.218;9.884;2023-06-14T10:39:29;3.42;;;2.35;;
16878;SDS011;8556;52.218;9.884;2023-06-14T10:41:57;3.97;;;2.83;;
16878;SDS011;8556;52.218;9.884;2023-06-14T10:44:41;4.50;;;2.60;;
16878;SDS011;8556;52.218;9.884;2023-06-14T10:47:10;3.40;;;2.38;;
16878;SDS011;8556;52.218;9.884;2023-06-14T10:49:49;4.35;;;2.50;;
16878;SDS011;8556;52.218;9.884;2023-06-14T10:52:20;2.88;;;2.55;;
16878;SDS011;8556;52.218;9.884;2023-06-14T10:55:08;3.47;;;2.60;;
16878;SDS011;8556;52.218;9.884;2023-06-14T10:57:36;4.78;;;2.97;;
16878;SDS011;8556;52.218;9.884;2023-06-14T11:00:07;5.40;;;2.50;;
16878;SDS011;8556;52.218;9.884;2023-06-14T11:05:48;5.57;;;2.90;;
16878;SDS011;8556;52.218;9.884;2023-06-14T11:11:11;3.25;;;2.90;;
16878;SDS011;8556;52.218;9.884;2023-06-14T11:13:41;2.80;;;2.55;;
16878;SDS011;8556;52.218;9.884;2023-06-14T11:16:12;4.00;;;3.00;;
16878;SDS011;8556;52.218;9.884;2023-06-14T11:18:40;4.28;;;2.90;;
16878;SDS011;8556;52.218;9.884;2023-06-14T11:21:07;3.65;;;2.72;;
16878;SDS011;8556;52.218;9.884;2023-06-14T11:23:34;3.65;;;2.90;;
16878;SDS011;8556;52.218;9.884;2023-06-14T11:26:01;3.22;;;2.67;;
16878;SDS011;8556;52.218;9.884;2023-06-14T11:28:35;3.90;;;2.90;;
16878;SDS011;8556;52.218;9.884;2023-06-14T11:31:03;2.75;;;2.55;;
16878;SDS011;8556;52.218;9.884;2023-06-14T11:33:32;2.95;;;2.70;;
16878;SDS011;8556;52.218;9.884;2023-06-14T11:36:01;3.28;;;2.97;;
16878;SDS011;8556;52.218;9.884;2023-06-14T11:38:29;4.50;;;3.10;;
16878;SDS011;8556;52.218;9.884;2023-06-14T11:40:58;4.13;;;2.90;;
16878;SDS011;8556;52.218;9.884;2023-06-14T11:43:26;4.50;;;3.10;;
16878;SDS011;8556;52.218;9.884;2023-06-14T11:45:54;5.88;;;3.08;;
16878;SDS011;8556;52.218;9.884;2023-06-14T11:48:21;5.00;;;3.35;;
16878;SDS011;8556;52.218;9.884;2023-06-14T11:50:50;3.10;;;2.80;;
16878;SDS011;8556;52.218;9.884;2023-06-14T11:53:17;3.30;;;3.00;;
16878;SDS011;8556;52.218;9.884;2023-06-14T11:55:44;4.75;;;3.47;;
16878;SDS011;8556;52.218;9.884;2023-06-14T11:58:12;3.38;;;3.00;;
16878;SDS011;8556;52.218;9.884;2023-06-14T12:00:40;5.40;;;2.92;;
16878;SDS011;8556;52.218;9.884;2023-06-14T12:03:14;3.78;;;3.00;;
16878;SDS011;8556;52.218;9.884;2023-06-14T12:05:41;4.90;;;3.08;;
16878;SDS011;8556;52.218;9.884;2023-06-14T12:08:08;4.65;;;3.67;;
16878;SDS011;8556;52.218;9.884;2023-06-14T12:10:39;5.60;;;3.13;;
16878;SDS011;8556;52.218;9.884;2023-06-14T12:13:08;5.30;;;2.95;;
16878;SDS011;8556;52.218;9.884;2023-06-14T12:15:35;4.93;;;3.05;;
16878;SDS011;8556;52.218;9.884;2023-06-14T12:18:04;3.38;;;3.08;;
16878;SDS011;8556;52.218;9.884;2023-06-14T12:20:34;4.68;;;2.55;;
16878;SDS011;8556;52.218;9.884;2023-06-14T12:23:02;5.40;;;3.15;;
16878;SDS011;8556;52.218;9.884;2023-06-14T12:25:30;3.08;;;2.88;;
16878;SDS011;8556;52.218;9.884;2023-06-14T12:27:58;5.20;;;3.00;;
16878;SDS011;8556;52.218;9.884;2023-06-14T12:30:26;4.10;;;2.90;;
16878;SDS011;8556;52.218;9.884;2023-06-14T12:32:53;4.22;;;3.28;;
16878;SDS011;8556;52.218;9.884;2023-06-14T12:35:19;5.53;;;3.63;;
16878;SDS011;8556;52.218;9.884;2023-06-14T12:37:48;5.65;;;3.25;;
16878;SDS011;8556;52.218;9.884;2023-06-14T12:40:14;3.58;;;3.28;;
16878;SDS011;8556;52.218;9.884;2023-06-14T12:42:41;3.92;;;3.47;;
16878;SDS011;8556;52.218;9.884;2023-06-14T12:45:09;5.82;;;3.88;;
16878;SDS011;8556;52.218;9.884;2023-06-14T12:47:36;6.13;;;3.40;;
16878;SDS011;8556;52.218;9.884;2023-06-14T12:50:03;6.80;;;3.53;;
16878;SDS011;8556;52.218;9.884;2023-06-14T12:52:30;5.35;;;3.58;;
16878;SDS011;8556;52.218;9.884;2023-06-14T12:55:02;5.50;;;3.33;;
16878;SDS011;8556;52.218;9.884;2023-06-14T12:57:30;8.48;;;3.88;;
16878;SDS011;8556;52.218;9.884;2023-06-14T12:59:57;5.20;;;3.30;;
16878;SDS011;8556;52.218;9.884;2023-06-14T13:02:23;8.10;;;4.40;;
16878;SDS011;8556;52.218;9.884;2023-06-14T13:04:52;4.93;;;3.45;;
16878;SDS011;8556;52.218;9.884;2023-06-14T13:07:19;6.10;;;3.80;;
16878;SDS011;8556;52.218;9.884;2023-06-14T13:09:46;15.35;;;4.65;;
16878;SDS011;8556;52.218;9.884;2023-06-14T13:12:15;12.95;;;4.10;;
16878;SDS011;8556;52.218;9.884;2023-06-14T13:14:41;13.63;;;4.53;;
16878;SDS011;8556;52.218;9.884;2023-06-14T13:17:09;10.25;;;4.00;;
16878;SDS011;8556;52.218;9.884;2023-06-14T13:19:36;6.82;;;3.83;;
16878;SDS011;8556;52.218;9.884;2023-06-14T13:22:03;4.65;;;3.70;;
16878;SDS011;8556;52.218;9.884;2023-06-14T13:24:30;6.20;;;4.10;;
16878;SDS011;8556;52.218;9.884;2023-06-14T13:26:56;4.90;;;3.95;;
16878;SDS011;8556;52.218;9.884;2023-06-14T13:29:25;5.10;;;4.20;;
16878;SDS011;8556;52.218;9.884;2023-06-14T13:31:52;6.85;;;4.00;;
16878;SDS011;8556;52.218;9.884;2023-06-14T13:34:20;5.97;;;3.70;;
16878;SDS011;8556;52.218;9.884;2023-06-14T13:36:47;5.80;;;3.60;;
16878;SDS011;8556;52.218;9.884;2023-06-14T13:39:15;4.07;;;3.60;;
16878;SDS011;8556;52.218;9.884;2023-06-14T13:41:41;5.47;;;3.65;;
16878;SDS011;8556;52.218;9.884;2023-06-14T13:44:08;5.10;;;3.72;;
16878;SDS011;8556;52.218;9.884;2023-06-14T13:46:37;4.20;;;3.80;;
16878;SDS011;8556;52.218;9.884;2023-06-14T13:49:04;5.97;;;3.63;;
16878;SDS011;8556;52.218;9.884;2023-06-14T13:51:31;7.10;;;3.60;;
16878;SDS011;8556;52.218;9.884;2023-06-14T13:54:00;6.47;;;3.90;;
16878;SDS011;8556;52.218;9.884;2023-06-14T13:56:27;5.93;;;3.78;;
16878;SDS011;8556;52.218;9.884;2023-06-14T13:58:55;6.50;;;3.80;;
16878;SDS011;8556;52.218;9.884;2023-06-14T14:01:21;4.50;;;3.60;;
16878;SDS011;8556;52.218;9.884;2023-06-14T14:03:50;4.47;;;3.50;;
16878;SDS011;8556;52.218;9.884;2023-06-14T14:06:16;5.40;;;3.65;;
16878;SDS011;8556;52.218;9.884;2023-06-14T14:08:43;5.78;;;3.63;;
16878;SDS011;8556;52.218;9.884;2023-06-14T14:11:10;5.47;;;3.10;;
16878;SDS011;8556;52.218;9.884;2023-06-14T14:13:37;3.92;;;3.10;;
16878;SDS011;8556;52.218;9.884;2023-06-14T14:16:05;4.60;;;3.17;;
16878;SDS011;8556;52.218;9.884;2023-06-14T14:18:32;7.88;;;3.90;;
16878;SDS011;8556;52.218;9.884;2023-06-14T14:21:00;3.70;;;3.40;;
16878;SDS011;8556;52.218;9.884;2023-06-14T14:23:27;7.35;;;3.67;;
16878;SDS011;8556;52.218;9.884;2023-06-14T14:25:54;8.43;;;3.60;;
16878;SDS011;8556;52.218;9.884;2023-06-14T14:28:20;7.07;;;3.67;;
16878;SDS011;8556;52.218;9.884;2023-06-14T14:30:47;6.72;;;3.90;;
16878;SDS011;8556;52.218;9.884;2023-06-14T14:33:14;4.45;;;3.40;;
16878;SDS011;8556;52.218;9.884;2023-06-14T14:35:42;6.95;;;3.47;;
16878;SDS011;8556;52.218;9.884;2023-06-14T14:38:12;5.90;;;3.65;;
16878;SDS011;8556;52.218;9.884;2023-06-14T14:40:39;7.55;;;3.88;;
16878;SDS011;8556;52.218;9.884;2023-06-14T14:43:06;6.85;;;3.85;;
16878;SDS011;8556;52.218;9.884;2023-06-14T14:45:33;4.30;;;3.53;;
16878;SDS011;8556;52.218;9.884;2023-06-14T14:48:00;4.65;;;3.58;;
16878;SDS011;8556;52.218;9.884;2023-06-14T14:50:28;3.45;;;3.15;;
16878;SDS011;8556;52.218;9.884;2023-06-14T14:52:55;4.85;;;3.35;;
16878;SDS011;8556;52.218;9.884;2023-06-14T14:55:23;5.78;;;3.28;;
16878;SDS011;8556;52.218;9.884;2023-06-14T14:57:50;4.40;;;3.42;;
16878;SDS011;8556;52.218;9.884;2023-06-14T15:00:17;5.85;;;3.65;;
16878;SDS011;8556;52.218;9.884;2023-06-14T15:02:44;6.70;;;3.60;;
16878;SDS011;8556;52.218;9.884;2023-06-14T15:05:11;6.63;;;3.60;;
16878;SDS011;8556;52.218;9.884;2023-06-14T15:07:37;5.03;;;3.60;;
16878;SDS011;8556;52.218;9.884;2023-06-14T15:10:06;5.03;;;3.70;;
16878;SDS011;8556;52.218;9.884;2023-06-14T15:12:35;6.35;;;3.67;;